createdAt,value
2023-05-09T00:00:11.069Z,31.84
2023-05-09T00:02:38.086Z,31.94
2023-05-09T00:05:04.986Z,31.91
2023-05-09T00:07:31.744Z,31.76
2023-05-09T00:09:58.594Z,31.62
2023-05-09T00:12:25.402Z,31.64
2023-05-09T00:14:54.221Z,31.53
2023-05-09T00:17:22.586Z,31.39
2023-05-09T00:19:49.631Z,31.15
2023-05-09T00:22:17.115Z,30.92
2023-05-09T00:24:44.048Z,32.82
2023-05-09T00:27:10.834Z,35.85
2023-05-09T00:29:37.630Z,37.99
2023-05-09T00:32:04.453Z,35.44
2023-05-09T00:34:31.284Z,33.93
2023-05-09T00:36:58.066Z,33.10
2023-05-09T00:39:24.870Z,32.83
2023-05-09T00:41:51.625Z,32.36
2023-05-09T00:44:18.384Z,32.12
2023-05-09T00:46:45.369Z,32.01
2023-05-09T00:49:12.422Z,32.13
2023-05-09T00:51:39.158Z,31.76
2023-05-09T00:54:08.471Z,31.83
2023-05-09T00:56:35.890Z,31.55
2023-05-09T00:59:02.791Z,31.57
2023-05-09T01:01:29.681Z,31.44
2023-05-09T01:03:56.424Z,31.52
2023-05-09T01:06:23.183Z,31.49
2023-05-09T01:08:49.962Z,31.42
2023-05-09T01:11:16.698Z,31.37
2023-05-09T01:13:43.472Z,31.23
2023-05-09T01:16:10.282Z,31.25
2023-05-09T01:18:37.071Z,32.48
2023-05-09T01:21:03.849Z,35.20
2023-05-09T01:23:30.631Z,37.21
2023-05-09T01:25:57.367Z,35.75
2023-05-09T01:28:24.094Z,33.88
2023-05-09T01:30:50.878Z,33.20
2023-05-09T01:33:17.936Z,32.76
2023-05-09T01:35:44.946Z,32.66
2023-05-09T01:38:11.898Z,32.13
2023-05-09T01:40:38.624Z,32.02
2023-05-09T01:43:05.363Z,32.06
2023-05-09T01:45:32.204Z,31.73
2023-05-09T01:47:59.029Z,31.81
2023-05-09T01:50:25.862Z,31.44
2023-05-09T01:52:52.684Z,31.56
2023-05-09T01:55:19.979Z,31.57
2023-05-09T01:57:46.721Z,31.52
2023-05-09T02:00:14.213Z,31.00
2023-05-09T02:02:41.155Z,31.39
2023-05-09T02:05:07.957Z,31.24
2023-05-09T02:07:34.736Z,31.53
2023-05-09T02:10:01.563Z,34.53
2023-05-09T02:12:28.424Z,35.42
2023-05-09T02:14:55.188Z,36.64
2023-05-09T02:17:21.936Z,34.38
2023-05-09T02:19:48.723Z,33.35
2023-05-09T02:22:15.680Z,32.69
2023-05-09T02:24:42.420Z,32.34
2023-05-09T02:27:09.223Z,32.07
2023-05-09T02:29:42.215Z,32.08
2023-05-09T02:32:09.613Z,31.91
2023-05-09T02:34:36.566Z,31.56
2023-05-09T02:37:03.341Z,31.59
2023-05-09T02:39:30.338Z,31.74
2023-05-09T02:41:57.091Z,31.59
2023-05-09T02:44:23.965Z,31.46
2023-05-09T02:46:50.717Z,31.39
2023-05-09T02:49:31.415Z,31.27
2023-05-09T02:51:58.671Z,31.21
2023-05-09T02:54:25.497Z,31.31
2023-05-09T02:56:52.671Z,31.24
2023-05-09T02:59:20.210Z,31.05
2023-05-09T03:01:47.146Z,30.91
2023-05-09T03:04:13.925Z,33.30
2023-05-09T03:06:41.029Z,36.22
2023-05-09T03:09:08.026Z,36.62
2023-05-09T03:11:36.495Z,33.72
2023-05-09T03:14:03.301Z,32.90
2023-05-09T03:16:30.213Z,32.32
2023-05-09T03:18:57.015Z,32.01
2023-05-09T03:21:23.778Z,31.90
2023-05-09T03:23:50.557Z,31.66
2023-05-09T03:26:17.307Z,31.61
2023-05-09T03:28:44.087Z,31.65
2023-05-09T03:31:10.868Z,31.45
2023-05-09T03:33:37.619Z,31.46
2023-05-09T03:36:05.181Z,31.17
2023-05-09T03:38:31.922Z,31.11
2023-05-09T03:40:58.760Z,30.93
2023-05-09T03:43:26.251Z,31.25
2023-05-09T03:45:53.013Z,31.11
2023-05-09T03:48:20.889Z,31.21
2023-05-09T03:50:47.650Z,31.05
2023-05-09T03:53:14.413Z,31.12
2023-05-09T03:55:41.167Z,31.66
2023-05-09T03:58:07.998Z,34.66
2023-05-09T04:00:34.791Z,37.21
2023-05-09T04:03:01.749Z,34.19
2023-05-09T04:05:28.897Z,32.84
2023-05-09T04:07:55.673Z,32.27
2023-05-09T04:10:22.576Z,32.12
2023-05-09T04:12:49.383Z,31.93
2023-05-09T04:15:16.297Z,31.54
2023-05-09T04:17:43.885Z,31.52
2023-05-09T04:20:10.841Z,31.35
2023-05-09T04:22:37.642Z,31.35
2023-05-09T04:25:04.558Z,31.07
2023-05-09T04:27:31.889Z,31.36
2023-05-09T04:29:58.642Z,31.09
2023-05-09T04:32:25.591Z,30.88
2023-05-09T04:34:52.378Z,31.06
2023-05-09T04:37:19.198Z,31.01
2023-05-09T04:39:45.990Z,31.05
2023-05-09T04:42:12.768Z,32.84
2023-05-09T04:44:39.523Z,34.07
2023-05-09T04:47:06.614Z,37.89
2023-05-09T04:49:33.369Z,35.31
2023-05-09T04:52:00.132Z,33.64
2023-05-09T04:54:26.956Z,32.46
2023-05-09T04:57:00.256Z,32.17
2023-05-09T04:59:33.390Z,31.85
2023-05-09T05:02:00.356Z,31.68
2023-05-09T05:04:28.036Z,31.56
2023-05-09T05:06:54.792Z,31.69
2023-05-09T05:09:21.638Z,31.30
2023-05-09T05:11:59.547Z,31.50
2023-05-09T05:14:28.726Z,31.41
2023-05-09T05:16:55.629Z,31.17
2023-05-09T05:19:22.372Z,31.22
2023-05-09T05:21:49.128Z,31.05
2023-05-09T05:24:15.887Z,31.09
2023-05-09T05:26:42.620Z,31.13
2023-05-09T05:29:09.444Z,31.04
2023-05-09T05:31:36.238Z,30.75
2023-05-09T05:34:03.152Z,30.90
2023-05-09T05:36:30.192Z,30.72
2023-05-09T05:38:56.951Z,31.08
2023-05-09T05:41:23.782Z,34.41
2023-05-09T05:43:52.852Z,36.68
2023-05-09T05:46:20.813Z,35.25
2023-05-09T05:48:47.567Z,33.24
2023-05-09T05:51:14.330Z,32.48
2023-05-09T05:53:41.189Z,32.06
2023-05-09T05:56:07.945Z,31.79
2023-05-09T05:58:34.737Z,31.58
2023-05-09T06:01:02.258Z,31.44
2023-05-09T06:03:29.131Z,31.28
2023-05-09T06:05:56.406Z,31.30
2023-05-09T06:08:23.176Z,31.17
2023-05-09T06:10:49.925Z,31.18
2023-05-09T06:13:16.828Z,31.08
2023-05-09T06:15:43.781Z,30.71
2023-05-09T06:18:10.694Z,31.10
2023-05-09T06:20:37.624Z,30.63
2023-05-09T06:23:04.405Z,30.91
2023-05-09T06:25:31.197Z,30.86
2023-05-09T06:27:58.028Z,30.74
2023-05-09T06:30:26.727Z,30.65
2023-05-09T06:32:53.972Z,33.85
2023-05-09T06:35:20.809Z,35.00
2023-05-09T06:37:48.772Z,33.99
2023-05-09T06:40:15.698Z,32.36
2023-05-09T06:42:42.485Z,31.68
2023-05-09T06:45:09.299Z,31.80
2023-05-09T06:47:36.237Z,31.54
2023-05-09T06:50:03.191Z,31.23
2023-05-09T06:52:30.005Z,31.37
2023-05-09T06:54:56.750Z,30.88
2023-05-09T06:57:23.615Z,30.77
2023-05-09T06:59:50.574Z,30.92
2023-05-09T07:02:17.316Z,30.92
2023-05-09T07:04:44.140Z,30.59
2023-05-09T07:07:11.109Z,30.63
2023-05-09T07:09:37.888Z,30.71
2023-05-09T07:12:04.649Z,34.52
2023-05-09T07:14:31.415Z,35.59
2023-05-09T07:17:13.867Z,33.98
2023-05-09T07:19:44.979Z,32.67
2023-05-09T07:22:13.418Z,31.90
2023-05-09T07:24:40.356Z,31.41
2023-05-09T07:27:07.136Z,31.48
2023-05-09T07:29:33.960Z,31.28
2023-05-09T07:32:00.781Z,31.39
2023-05-09T07:34:27.637Z,31.14
2023-05-09T07:36:54.480Z,31.02
2023-05-09T07:39:21.228Z,30.92
2023-05-09T07:41:48.782Z,30.83
2023-05-09T07:44:15.812Z,30.84
2023-05-09T07:46:42.645Z,31.16
2023-05-09T07:49:09.460Z,35.08
2023-05-09T07:51:36.261Z,35.29
2023-05-09T07:54:03.047Z,33.23
2023-05-09T07:56:29.826Z,32.26
2023-05-09T07:58:56.658Z,31.57
2023-05-09T08:01:23.451Z,31.60
2023-05-09T08:03:50.321Z,31.27
2023-05-09T08:06:17.144Z,31.24
2023-05-09T08:08:43.902Z,31.21
2023-05-09T08:11:10.687Z,30.95
2023-05-09T08:13:37.481Z,30.97
2023-05-09T08:16:04.329Z,30.90
2023-05-09T08:18:31.270Z,30.82
2023-05-09T08:20:59.473Z,30.85
2023-05-09T08:23:26.611Z,30.78
2023-05-09T08:25:53.657Z,32.24
2023-05-09T08:28:21.897Z,34.85
2023-05-09T08:30:48.701Z,35.19
2023-05-09T08:33:15.481Z,32.80
2023-05-09T08:35:42.273Z,32.11
2023-05-09T08:38:09.071Z,31.59
2023-05-09T08:40:35.876Z,31.63
2023-05-09T08:43:02.629Z,31.02
2023-05-09T08:45:29.454Z,31.38
2023-05-09T08:47:56.259Z,31.45
2023-05-09T08:50:23.067Z,31.18
2023-05-09T08:52:49.822Z,30.80
2023-05-09T08:55:16.585Z,30.92
2023-05-09T08:57:43.337Z,30.97
2023-05-09T09:00:11.211Z,30.86
2023-05-09T09:02:38.018Z,31.50
2023-05-09T09:05:05.203Z,34.40
2023-05-09T09:07:32.672Z,34.72
2023-05-09T09:09:59.462Z,33.03
2023-05-09T09:12:26.243Z,31.96
2023-05-09T09:14:53.014Z,31.54
2023-05-09T09:17:19.918Z,31.39
2023-05-09T09:19:46.711Z,31.12
2023-05-09T09:22:13.468Z,31.32
2023-05-09T09:24:40.410Z,31.07
2023-05-09T09:27:07.195Z,31.00
2023-05-09T09:29:34.040Z,30.85
2023-05-09T09:32:00.927Z,30.81
2023-05-09T09:34:27.737Z,30.85
2023-05-09T09:36:54.624Z,34.41
2023-05-09T09:39:21.979Z,35.48
2023-05-09T09:41:48.790Z,34.65
2023-05-09T09:44:15.624Z,32.67
2023-05-09T09:46:42.673Z,31.87
2023-05-09T09:49:09.439Z,31.53
2023-05-09T09:51:36.174Z,31.52
2023-05-09T09:54:03.158Z,31.48
2023-05-09T09:56:29.977Z,31.38
2023-05-09T09:58:56.711Z,31.17
2023-05-09T10:01:24.511Z,31.45
2023-05-09T10:03:51.329Z,30.99
2023-05-09T10:06:18.136Z,30.93
2023-05-09T10:08:47.097Z,31.01
2023-05-09T10:11:14.046Z,30.98
2023-05-09T10:13:41.242Z,33.82
2023-05-09T10:16:08.100Z,35.64
2023-05-09T10:18:35.092Z,34.84
2023-05-09T10:21:03.741Z,32.68
2023-05-09T10:23:31.128Z,32.12
2023-05-09T10:25:57.919Z,31.65
2023-05-09T10:28:25.081Z,31.46
2023-05-09T10:30:51.832Z,31.44
2023-05-09T10:33:18.667Z,31.17
2023-05-09T10:35:45.690Z,31.29
2023-05-09T10:38:12.548Z,31.13
2023-05-09T10:40:39.286Z,31.30
2023-05-09T10:43:07.094Z,31.15
2023-05-09T10:45:33.864Z,31.00
2023-05-09T10:48:01.562Z,31.21
2023-05-09T10:50:28.359Z,34.83
2023-05-09T10:52:55.138Z,35.71
2023-05-09T10:55:22.427Z,33.90
2023-05-09T10:57:49.392Z,32.25
2023-05-09T11:00:16.598Z,32.04
2023-05-09T11:02:43.483Z,31.73
2023-05-09T11:05:10.456Z,31.76
2023-05-09T11:07:37.285Z,31.37
2023-05-09T11:10:04.147Z,31.32
2023-05-09T11:12:31.526Z,31.08
2023-05-09T11:14:58.506Z,31.18
2023-05-09T11:17:25.335Z,30.89
2023-05-09T11:19:52.541Z,31.16
2023-05-09T11:22:19.511Z,31.33
2023-05-09T11:24:46.982Z,34.50
2023-05-09T11:27:13.741Z,35.62
2023-05-09T11:29:40.577Z,33.36
2023-05-09T11:32:10.318Z,32.04
2023-05-09T11:34:37.192Z,31.91
2023-05-09T11:37:03.959Z,31.50
2023-05-09T11:39:30.822Z,31.35
2023-05-09T11:41:57.600Z,31.41
2023-05-09T11:44:24.357Z,31.43
2023-05-09T11:46:51.162Z,31.39
2023-05-09T11:49:19.476Z,31.25
2023-05-09T11:51:46.323Z,31.04
2023-05-09T11:54:14.735Z,31.21
2023-05-09T11:56:41.916Z,34.29
2023-05-09T11:59:10.374Z,35.55
2023-05-09T12:01:37.164Z,34.57
2023-05-09T12:04:04.056Z,32.64
2023-05-09T12:06:30.959Z,31.90
2023-05-09T12:08:58.050Z,31.81
2023-05-09T12:11:24.834Z,31.66
2023-05-09T12:13:52.246Z,31.47
2023-05-09T12:16:19.149Z,31.16
2023-05-09T12:18:46.055Z,31.32
2023-05-09T12:21:12.834Z,31.33
2023-05-09T12:23:39.583Z,31.05
2023-05-09T12:26:06.786Z,30.92
2023-05-09T12:28:33.552Z,32.99
2023-05-09T12:31:00.428Z,35.66
2023-05-09T12:33:27.238Z,35.74
2023-05-09T12:35:54.664Z,33.19
2023-05-09T12:38:21.493Z,32.07
2023-05-09T12:40:48.542Z,31.75
2023-05-09T12:43:15.317Z,31.76
2023-05-09T12:45:42.199Z,31.64
2023-05-09T12:48:09.436Z,31.23
2023-05-09T12:50:36.420Z,31.52
2023-05-09T12:53:04.440Z,31.61
2023-05-09T12:55:32.600Z,31.42
2023-05-09T12:57:59.453Z,31.41
2023-05-09T13:00:26.257Z,31.23
2023-05-09T13:02:53.187Z,35.09
2023-05-09T13:05:20.031Z,36.05
2023-05-09T13:07:46.826Z,34.28
2023-05-09T13:10:13.635Z,32.43
2023-05-09T13:12:44.290Z,32.09
2023-05-09T13:15:11.307Z,31.96
2023-05-09T13:17:38.114Z,32.00
2023-05-09T13:20:05.526Z,31.58
2023-05-09T13:22:32.299Z,31.41
2023-05-09T13:24:59.150Z,31.28
2023-05-09T13:27:27.734Z,31.39
2023-05-09T13:29:54.463Z,31.41
2023-05-09T13:32:21.417Z,31.80
2023-05-09T13:34:48.230Z,35.49
2023-05-09T13:37:15.010Z,36.49
2023-05-09T13:39:41.762Z,34.45
2023-05-09T13:42:08.529Z,32.73
2023-05-09T13:44:35.511Z,32.16
2023-05-09T13:47:02.672Z,32.18
2023-05-09T13:49:29.484Z,32.09
2023-05-09T13:51:56.214Z,31.71
2023-05-09T13:54:23.085Z,31.87
2023-05-09T13:56:51.141Z,31.75
2023-05-09T13:59:17.916Z,31.71
2023-05-09T14:01:44.721Z,31.55
2023-05-09T14:04:11.610Z,31.36
2023-05-09T14:06:38.552Z,31.79
2023-05-09T14:09:05.426Z,35.35
2023-05-09T14:11:32.311Z,36.20
2023-05-09T14:13:59.081Z,34.33
2023-05-09T14:16:26.053Z,32.75
2023-05-09T14:18:52.868Z,32.47
2023-05-09T14:21:19.604Z,32.35
2023-05-09T14:23:46.465Z,32.06
2023-05-09T14:26:13.586Z,31.92
2023-05-09T14:28:40.392Z,31.87
2023-05-09T14:31:07.308Z,31.76
2023-05-09T14:33:35.965Z,31.66
2023-05-09T14:36:02.982Z,31.65
2023-05-09T14:38:29.888Z,31.32
2023-05-09T14:40:56.840Z,34.01
2023-05-09T14:43:24.202Z,36.34
2023-05-09T14:45:50.957Z,36.15
2023-05-09T14:48:17.759Z,33.45
2023-05-09T14:50:44.666Z,32.52
2023-05-09T14:53:11.485Z,32.23
2023-05-09T14:55:38.273Z,32.09
2023-05-09T14:58:05.136Z,32.07
2023-05-09T15:00:32.823Z,31.80
2023-05-09T15:02:59.688Z,31.93
2023-05-09T15:05:26.431Z,31.96
2023-05-09T15:07:53.518Z,31.42
2023-05-09T15:10:20.610Z,31.65
2023-05-09T15:12:47.374Z,31.73
2023-05-09T15:15:14.190Z,35.31
2023-05-09T15:17:41.021Z,36.38
2023-05-09T15:20:07.775Z,35.10
2023-05-09T15:22:34.608Z,33.18
2023-05-09T15:25:02.453Z,32.33
2023-05-09T15:27:31.008Z,32.40
2023-05-09T15:29:57.774Z,32.09
2023-05-09T15:32:24.625Z,32.05
2023-05-09T15:34:51.458Z,32.00
2023-05-09T15:37:18.333Z,31.82
2023-05-09T15:39:45.568Z,31.54
2023-05-09T15:42:12.414Z,31.84
2023-05-09T15:44:39.198Z,31.80
2023-05-09T15:47:05.989Z,33.25
2023-05-09T15:49:32.906Z,36.56
2023-05-09T15:51:59.652Z,36.81
2023-05-09T15:54:27.059Z,33.83
2023-05-09T15:56:53.803Z,32.75
2023-05-09T15:59:21.000Z,32.32
2023-05-09T16:01:47.807Z,32.08
2023-05-09T16:04:14.648Z,32.03
2023-05-09T16:06:41.822Z,32.06
2023-05-09T16:09:09.308Z,32.05
2023-05-09T16:11:36.139Z,31.85
2023-05-09T16:14:04.930Z,31.96
2023-05-09T16:16:31.858Z,31.84
2023-05-09T16:18:58.618Z,31.48
2023-05-09T16:21:28.960Z,32.60
2023-05-09T16:23:57.823Z,35.76
2023-05-09T16:26:24.613Z,36.35
2023-05-09T16:28:51.389Z,34.13
2023-05-09T16:31:18.175Z,32.84
2023-05-09T16:33:46.850Z,32.66
2023-05-09T16:36:13.591Z,32.19
2023-05-09T16:38:40.419Z,32.21
2023-05-09T16:41:07.165Z,31.89
2023-05-09T16:43:33.895Z,31.82
2023-05-09T16:46:00.761Z,32.01
2023-05-09T16:48:27.543Z,31.54
2023-05-09T16:50:54.345Z,31.47
2023-05-09T16:53:22.730Z,31.64
2023-05-09T16:55:49.581Z,33.75
2023-05-09T16:58:16.430Z,36.38
2023-05-09T17:00:43.371Z,36.07
2023-05-09T17:03:10.306Z,33.72
2023-05-09T17:05:37.107Z,32.82
2023-05-09T17:08:03.892Z,32.50
2023-05-09T17:10:30.650Z,32.11
2023-05-09T17:12:58.146Z,31.99
2023-05-09T17:15:24.952Z,31.80
2023-05-09T17:17:51.718Z,32.04
2023-05-09T17:20:18.684Z,31.78
2023-05-09T17:22:45.484Z,31.80
2023-05-09T17:25:12.365Z,31.91
2023-05-09T17:27:41.360Z,36.07
2023-05-09T17:30:08.156Z,36.77
2023-05-09T17:32:34.986Z,34.68
2023-05-09T17:35:01.864Z,33.13
2023-05-09T17:37:28.646Z,32.57
2023-05-09T17:39:55.445Z,32.27
2023-05-09T17:42:22.175Z,32.07
2023-05-09T17:44:50.284Z,32.11
2023-05-09T17:47:17.014Z,31.85
2023-05-09T17:49:43.763Z,31.76
2023-05-09T17:52:10.575Z,31.67
2023-05-09T17:54:37.511Z,31.46
2023-05-09T17:57:04.279Z,31.77
2023-05-09T17:59:31.079Z,31.61
2023-05-09T18:01:57.900Z,35.38
2023-05-09T18:04:25.672Z,36.43
2023-05-09T18:06:52.471Z,34.50
2023-05-09T18:09:19.435Z,33.04
2023-05-09T18:11:46.297Z,32.60
2023-05-09T18:14:13.168Z,32.14
2023-05-09T18:16:40.009Z,31.97
2023-05-09T18:19:07.025Z,31.94
2023-05-09T18:21:33.813Z,31.67
2023-05-09T18:24:01.373Z,31.86
2023-05-09T18:26:28.636Z,31.85
2023-05-09T18:28:55.422Z,31.61
2023-05-09T18:31:22.337Z,31.40
2023-05-09T18:33:49.247Z,33.77
2023-05-09T18:36:16.041Z,36.17
2023-05-09T18:38:43.452Z,35.87
2023-05-09T18:41:10.356Z,33.44
2023-05-09T18:43:38.823Z,32.59
2023-05-09T18:46:05.733Z,32.36
2023-05-09T18:48:32.779Z,31.93
2023-05-09T18:50:59.544Z,31.84
2023-05-09T18:53:26.288Z,31.74
2023-05-09T18:55:53.091Z,31.80
2023-05-09T18:58:21.188Z,31.76
2023-05-09T19:00:48.005Z,31.24
2023-05-09T19:03:14.810Z,31.64
2023-05-09T19:05:42.780Z,31.97
2023-05-09T19:08:09.568Z,35.80
2023-05-09T19:10:37.715Z,36.11
2023-05-09T19:13:04.577Z,34.10
2023-05-09T19:15:31.515Z,32.91
2023-05-09T19:17:58.498Z,32.41
2023-05-09T19:20:25.751Z,31.91
2023-05-09T19:22:52.496Z,31.96
2023-05-09T19:25:19.240Z,31.93
2023-05-09T19:27:46.013Z,31.65
2023-05-09T19:30:15.150Z,31.66
2023-05-09T19:32:42.222Z,31.59
2023-05-09T19:35:09.018Z,31.65
2023-05-09T19:37:36.104Z,33.23
2023-05-09T19:40:05.411Z,36.81
2023-05-09T19:42:32.582Z,36.28
2023-05-09T19:44:59.569Z,33.98
2023-05-09T19:47:26.406Z,32.90
2023-05-09T19:49:53.813Z,32.71
2023-05-09T19:52:20.784Z,32.04
2023-05-09T19:54:49.031Z,31.98
2023-05-09T19:57:15.824Z,32.13
2023-05-09T19:59:42.552Z,31.60
2023-05-09T20:02:09.741Z,31.62
2023-05-09T20:04:36.534Z,31.31
2023-05-09T20:07:03.339Z,31.38
2023-05-09T20:09:32.027Z,31.30
2023-05-09T20:11:58.791Z,31.33
2023-05-09T20:14:25.940Z,34.22
2023-05-09T20:16:52.723Z,36.69
2023-05-09T20:19:19.967Z,35.52
2023-05-09T20:21:46.729Z,33.33
2023-05-09T20:24:13.535Z,32.67
2023-05-09T20:26:40.384Z,32.43
2023-05-09T20:29:07.361Z,31.95
2023-05-09T20:31:34.143Z,32.15
2023-05-09T20:34:01.636Z,31.89
2023-05-09T20:36:28.503Z,31.78
2023-05-09T20:38:55.777Z,31.39
2023-05-09T20:41:23.504Z,31.50
2023-05-09T20:43:50.294Z,31.25
2023-05-09T20:46:17.380Z,31.45
2023-05-09T20:48:44.314Z,33.44
2023-05-09T20:51:11.066Z,36.27
2023-05-09T20:53:37.845Z,36.10
2023-05-09T20:56:04.596Z,33.60
2023-05-09T20:58:31.343Z,32.78
2023-05-09T21:00:58.198Z,32.39
2023-05-09T21:03:24.999Z,31.82
2023-05-09T21:05:51.793Z,32.00
2023-05-09T21:08:19.125Z,31.60
2023-05-09T21:10:45.951Z,31.52
2023-05-09T21:13:12.747Z,31.72
2023-05-09T21:15:39.544Z,31.29
2023-05-09T21:18:06.352Z,31.57
2023-05-09T21:20:33.140Z,31.31
2023-05-09T21:22:59.970Z,31.09
2023-05-09T21:25:26.715Z,31.26
2023-05-09T21:27:53.458Z,34.41
2023-05-09T21:30:20.230Z,37.48
2023-05-09T21:32:47.041Z,34.87
2023-05-09T21:35:15.353Z,33.18
2023-05-09T21:37:42.114Z,32.69
2023-05-09T21:40:08.859Z,32.08
2023-05-09T21:42:40.593Z,31.96
2023-05-09T21:45:07.337Z,31.76
2023-05-09T21:47:34.325Z,31.78
2023-05-09T21:50:01.150Z,31.87
2023-05-09T21:52:27.898Z,31.28
2023-05-09T21:54:54.679Z,31.35
2023-05-09T21:57:21.438Z,31.15
2023-05-09T21:59:48.231Z,30.95
2023-05-09T22:02:15.152Z,31.37
2023-05-09T22:04:42.054Z,31.91
2023-05-09T22:07:08.810Z,34.83
2023-05-09T22:09:35.610Z,36.97
2023-05-09T22:12:02.352Z,35.77
2023-05-09T22:14:29.093Z,34.02
2023-05-09T22:16:55.853Z,33.32
2023-05-09T22:19:22.613Z,32.70
2023-05-09T22:21:49.563Z,32.32
2023-05-09T22:24:16.369Z,32.15
2023-05-09T22:26:43.167Z,31.78
2023-05-09T22:29:09.922Z,31.79
2023-05-09T22:31:36.882Z,31.94
2023-05-09T22:34:03.795Z,31.82
2023-05-09T22:36:30.551Z,31.52
2023-05-09T22:38:57.304Z,31.70
2023-05-09T22:41:24.036Z,31.49
2023-05-09T22:43:50.852Z,31.21
2023-05-09T22:46:17.643Z,31.27
2023-05-09T22:48:44.482Z,31.14
2023-05-09T22:51:11.389Z,31.75
2023-05-09T22:53:38.157Z,34.69
2023-05-09T22:56:04.950Z,36.74
2023-05-09T22:58:31.807Z,35.79
2023-05-09T23:00:58.648Z,33.85
2023-05-09T23:03:25.635Z,33.00
2023-05-09T23:05:52.452Z,32.66
2023-05-09T23:08:19.238Z,32.46
2023-05-09T23:10:46.159Z,32.14
2023-05-09T23:13:12.939Z,31.76
2023-05-09T23:15:39.768Z,32.00
2023-05-09T23:18:06.948Z,31.57
2023-05-09T23:20:33.720Z,31.43
2023-05-09T23:23:01.145Z,31.51
2023-05-09T23:25:27.884Z,31.41
2023-05-09T23:27:54.805Z,31.22
2023-05-09T23:30:21.607Z,31.32
2023-05-09T23:32:48.407Z,31.46
2023-05-09T23:35:15.482Z,31.84
2023-05-09T23:37:42.765Z,34.60
2023-05-09T23:40:09.530Z,35.70
2023-05-09T23:42:36.353Z,37.78
2023-05-09T23:45:03.312Z,34.77
2023-05-09T23:47:30.321Z,33.77
2023-05-09T23:49:57.150Z,32.83
2023-05-09T23:52:23.929Z,32.48
2023-05-09T23:54:50.759Z,32.38
2023-05-09T23:57:17.505Z,32.21
2023-05-09T23:59:44.714Z,32.06
